Time Latitude Longitude Accuracy (66% radius in meters) Altitude (meters) Speed (km/hour) Bearing (degrees) Battery (%) GPS flag
04:15:42 51.899141 107.658837 9 674 1.2603571414948 133.39999389648 53 1 delete
04:15:35 51.899216 107.658726 10 674 0.9998499751091 186.19999694824 53 1 delete
04:15:34 51.899241 107.658734 10 675 0.73171037435532 185.10000610352 53 1 delete
04:15:27 51.899314 107.658710 9 680 0.68410527706146 185.10000610352 53 1 delete
04:15:23 51.899390 107.658708 9 680 1.2169634103775 188.80000305176 53 1 delete
04:15:22 51.899414 107.658678 9 679 1.0599999427795 173.39999389648 53 1 delete
04:15:12 51.899453 107.658625 10 677 0 0 53 1 delete
04:15:01 51.899488 107.658595 10 675 0.39458838105202 311.10000610352 53 1 delete
04:14:50 51.899462 107.658576 7 676 0.30232432484627 298.70001220703 53 1 delete
04:14:44 51.899447 107.658532 7 674 0.87555694580078 109.69999694824 53 1 delete
04:14:39 51.899460 107.658358 11 673 1.533949136734 38.200000762939 53 1 delete
04:14:38 51.899446 107.658257 10 675 0.90354853868484 10.199999809265 53 1 delete
04:14:35 51.899431 107.658217 8 676 0.93193346261978 53.900001525879 53 1 delete
04:14:32 51.899389 107.658076 8 671 1.7704519033432 50.299999237061 53 1 delete
04:14:28 51.899350 107.657871 13 675 0.95084172487259 75.599998474121 53 1 delete
04:14:27 51.899344 107.657861 13 673 0.72249567508698 57.599998474121 53 1 delete
04:13:56 51.899116 107.657551 70 672 2.4700810909271 259.70001220703 53 1 delete
04:13:28 51.899325 107.657738 13 673 0 0 53 1 delete
04:12:51 51.899339 107.657741 13 669 0 0 53 1 delete
04:12:40 51.899401 107.657857 16 664 0.60133188962936 197.19999694824 53 1 delete
04:12:38 51.899457 107.657894 18 662 0.7942920923233 52.299999237061 53 1 delete
04:12:34 51.899480 107.657933 21 664 0.64381676912308 12.5 53 1 delete
04:12:33 51.899513 107.658125 32 665 1.2903487682343 62.400001525879 53 1 delete
04:12:32 51.899503 107.657979 28 673 0.85702973604202 81.300003051758 53 1 delete
04:12:29 51.899555 107.657795 31 668 1.7942407131195 322.29998779297 53 1 delete
04:12:16 51.899509 107.657923 11 672 0.9141663312912 348.29998779297 53 1 delete
04:12:00 51.899414 107.657988 11 667 1.1960351467133 199.39999389648 53 1 delete
04:11:56 51.899521 107.658054 11 669 0.69050705432892 235.30000305176 53 1 delete
04:11:55 51.899621 107.658101 11 672 0.87091904878616 314.10000610352 53 1 delete
04:11:48 51.899534 107.658144 10 674 1.2513192892075 226.5 53 1 delete
04:11:47 51.899542 107.658177 10 673 1.7310401201248 221.39999389648 53 1 delete
04:11:40 51.899594 107.658282 11 676 1.7123668193817 228.5 53 1 delete
04:11:37 51.899672 107.658354 12 679 2.9328827857971 227.80000305176 53 1 delete
04:11:29 51.899718 107.658554 13 671 1.4205632209778 208.69999694824 53 1 delete
04:11:23 51.899793 107.658669 12 672 1.0929318666458 211 53 1 delete
04:11:19 51.899870 107.658752 12 667 0.97739452123642 186.30000305176 53 1 delete
04:11:15 51.899966 107.658783 10 668 1.0316007137299 200.10000610352 53 1 delete
04:11:10 51.900052 107.658853 10 670 0.2942787706852 216.10000610352 53 1 delete
04:10:57 51.900140 107.658930 11 670 1.7501143217087 240.69999694824 53 1 delete
04:10:46 51.900122 107.658959 13 669 1.0316007137299 139.39999389648 53 1 delete
04:10:38 51.900212 107.658919 12 674 0.24351592361927 77.900001525879 53 1 delete
04:10:32 51.900285 107.658825 12 672 0.59774577617645 155.89999389648 53 1 delete
04:10:25 51.900360 107.658721 13 671 1.3138111829758 134 53 1 delete
04:10:20 51.900424 107.658606 13 672 1.8421998023987 164.69999694824 53 1 delete
04:10:18 51.900505 107.658535 13 670 1.6807438135147 147.69999694824 53 1 delete
04:10:15 51.900558 107.658417 13 669 1.1407015323639 152.39999389648 53 1 delete
04:10:12 51.900674 107.658311 12 673 1.5223665237427 150 53 1 delete
04:10:07 51.900700 107.658249 13 672 0 0 53 1 delete
04:09:36 51.900761 107.658194 13 683 0.73246163129807 111.40000152588 53 1 delete
04:09:31 51.900817 107.658072 14 686 1.2169634103775 131.39999389648 53 1 delete